Time;durP1;ratioP1;P1;durP2;ratioP2;P2;SDS_P1;SDS_P2;PMS_P1;PMS_P2;Temp;Humidity;BMP_temperature;BMP_pressure;BME280_temperature;BME280_humidity;BME280_pressure;Samples;Min_cycle;Max_cycle;Signal;HPM_P1;HPM_P2
2023/05/11 00:02:25;;;;;;;;;1.33;1.33;;;;;;;;5028836;28;9318;-80
2023/05/11 00:04:52;;;;;;;;;1.00;1.00;;;;;;;;5029676;28;9395;-80
2023/05/11 00:07:21;;;;;;;;;2.00;2.00;;;;;;;;5029902;28;9286;-83
2023/05/11 00:09:48;;;;;;;;;1.00;1.00;;;;;;;;5029238;28;9417;-79
2023/05/11 00:12:15;;;;;;;;;5.00;2.00;;;;;;;;5046090;28;9511;-80
2023/05/11 00:14:43;;;;;;;;;2.67;2.67;;;;;;;;5034730;28;9416;-81
2023/05/11 00:17:10;;;;;;;;;6.33;2.67;;;;;;;;5030067;28;9352;-79
2023/05/11 00:19:38;;;;;;;;;2.67;2.67;;;;;;;;5029307;28;9334;-80
2023/05/11 00:22:05;;;;;;;;;2.33;2.33;;;;;;;;5029643;28;9682;-81
2023/05/11 00:24:34;;;;;;;;;3.67;1.00;;;;;;;;5029211;28;9336;-79
2023/05/11 00:27:01;;;;;;;;;4.00;3.00;;;;;;;;5041311;28;9421;-79
2023/05/11 00:29:28;;;;;;;;;2.50;2.00;;;;;;;;5029752;28;9455;-79
2023/05/11 00:31:55;;;;;;;;;2.00;2.00;;;;;;;;5020787;28;9548;-79
2023/05/11 00:34:22;;;;;;;;;3.00;3.00;;;;;;;;5010820;28;9490;-79
2023/05/11 00:36:50;;;;;;;;;3.00;3.00;;;;;;;;5011145;28;9669;-79
2023/05/11 00:39:17;;;;;;;;;5.00;2.00;;;;;;;;5014359;28;9575;-80
2023/05/11 00:41:45;;;;;;;;;3.00;3.00;;;;;;;;5011170;28;9753;-80
2023/05/11 00:44:13;;;;;;;;;3.00;1.75;;;;;;;;5013672;28;9731;-82
2023/05/11 00:46:40;;;;;;;;;3.00;3.00;;;;;;;;5009572;28;9723;-81
2023/05/11 00:49:08;;;;;;;;;3.00;3.00;;;;;;;;5008523;28;9713;-80
2023/05/11 00:51:36;;;;;;;;;5.00;3.00;;;;;;;;5009323;28;9801;-83
2023/05/11 00:54:04;;;;;;;;;3.00;3.00;;;;;;;;5008416;28;9824;-81
2023/05/11 00:56:31;;;;;;;;;2.75;2.75;;;;;;;;5009341;28;9673;-80
2023/05/11 00:59:02;;;;;;;;;3.00;3.00;;;;;;;;5011070;28;9801;-81
2023/05/11 01:01:29;;;;;;;;;2.25;2.00;;;;;;;;5029998;28;9567;-80
2023/05/11 01:03:57;;;;;;;;;3.00;3.00;;;;;;;;5017260;28;9644;-80
2023/05/11 01:06:30;;;;;;;;;2.00;2.00;;;;;;;;5019054;28;9662;-82
2023/05/11 01:09:04;;;;;;;;;2.00;2.00;;;;;;;;5008948;28;9560;-80
2023/05/11 01:11:40;;;;;;;;;1.00;1.00;;;;;;;;5008517;28;10495;-82
2023/05/11 01:14:15;;;;;;;;;4.50;3.25;;;;;;;;4998393;28;9902;-80
2023/05/11 01:16:45;;;;;;;;;4.00;2.00;;;;;;;;5010227;28;10570;-82
2023/05/11 01:19:18;;;;;;;;;3.00;2.00;;;;;;;;5017524;28;9785;-81
2023/05/11 01:21:48;;;;;;;;;2.50;2.50;;;;;;;;5011334;28;9642;-81
2023/05/11 01:24:32;;;;;;;;;2.00;2.00;;;;;;;;5026495;28;9943;-80
2023/05/11 01:27:39;;;;;;;;;3.00;2.00;;;;;;;;5008612;28;9900;-80
2023/05/11 01:30:35;;;;;;;;;3.50;3.50;;;;;;;;5008664;28;9948;-82
2023/05/11 01:33:07;;;;;;;;;1.00;1.00;;;;;;;;5006735;28;9937;-80
2023/05/11 01:35:37;;;;;;;;;2.00;2.00;;;;;;;;5009152;28;10007;-81
2023/05/11 01:38:07;;;;;;;;;2.00;2.00;;;;;;;;5008344;28;10067;-80
2023/05/11 01:40:36;;;;;;;;;3.25;2.00;;;;;;;;5008949;28;10047;-80
2023/05/11 01:43:06;;;;;;;;;1.00;1.00;;;;;;;;5008878;28;10060;-80
2023/05/11 01:45:39;;;;;;;;;2.00;2.00;;;;;;;;5008893;28;9769;-80
2023/05/11 01:48:09;;;;;;;;;1.25;1.25;;;;;;;;4996117;28;9967;-80
2023/05/11 01:50:37;;;;;;;;;0.50;0.50;;;;;;;;5007192;28;9866;-80
2023/05/11 01:53:05;;;;;;;;;1.00;1.00;;;;;;;;5008655;28;9887;-80
2023/05/11 01:55:35;;;;;;;;;1.00;1.00;;;;;;;;5008276;28;9787;-80
2023/05/11 01:58:04;;;;;;;;;3.00;1.00;;;;;;;;5008524;28;10600;-80
2023/05/11 02:00:33;;;;;;;;;5.75;3.00;;;;;;;;5001358;28;9835;-80
2023/05/11 02:03:05;;;;;;;;;1.00;1.00;;;;;;;;5027819;28;9766;-81
2023/05/11 02:05:33;;;;;;;;;1.00;1.00;;;;;;;;5027979;28;9791;-80
2023/05/11 02:08:03;;;;;;;;;2.50;1.75;;;;;;;;5028337;28;9780;-82
2023/05/11 02:10:30;;;;;;;;;1.00;1.00;;;;;;;;5028304;28;9921;-81
2023/05/11 02:12:58;;;;;;;;;0.75;0.75;;;;;;;;5031828;28;9903;-80
2023/05/11 02:15:27;;;;;;;;;1.00;1.00;;;;;;;;5031308;28;9710;-80
2023/05/11 02:17:55;;;;;;;;;0.25;0.25;;;;;;;;5030265;28;9954;-80
2023/05/11 02:20:24;;;;;;;;;1.00;1.00;;;;;;;;5032073;28;9722;-79
2023/05/11 02:22:53;;;;;;;;;2.75;2.75;;;;;;;;5032583;28;9702;-80
2023/05/11 02:25:21;;;;;;;;;3.50;2.00;;;;;;;;5032564;28;9770;-80
2023/05/11 02:27:49;;;;;;;;;1.00;1.00;;;;;;;;5032279;28;9990;-79
2023/05/11 02:30:16;;;;;;;;;1.75;1.00;;;;;;;;5031532;28;9949;-81
2023/05/11 02:32:49;;;;;;;;;1.00;1.00;;;;;;;;5031904;28;9892;-80
2023/05/11 02:35:19;;;;;;;;;2.50;2.50;;;;;;;;5031461;28;9721;-80
2023/05/11 02:37:48;;;;;;;;;0.75;0.75;;;;;;;;5031478;28;10677;-81
2023/05/11 02:40:17;;;;;;;;;2.00;2.00;;;;;;;;5031041;28;9893;-82
2023/05/11 02:42:46;;;;;;;;;1.75;1.00;;;;;;;;5034286;28;9939;-81
2023/05/11 02:45:16;;;;;;;;;3.00;2.00;;;;;;;;5031059;28;9811;-82
2023/05/11 02:47:47;;;;;;;;;3.25;2.25;;;;;;;;5031165;28;10009;-80
2023/05/11 02:50:15;;;;;;;;;1.00;1.00;;;;;;;;5018408;28;9760;-81
2023/05/11 02:52:47;;;;;;;;;2.50;2.50;;;;;;;;5031412;28;9707;-80
2023/05/11 02:55:18;;;;;;;;;1.25;1.25;;;;;;;;5031054;28;9890;-81
2023/05/11 02:57:46;;;;;;;;;1.00;1.00;;;;;;;;5031241;28;10512;-82
2023/05/11 03:00:14;;;;;;;;;2.00;2.00;;;;;;;;5030075;28;9795;-80
2023/05/11 03:02:41;;;;;;;;;3.25;3.25;;;;;;;;5030738;28;9706;-81
2023/05/11 03:05:08;;;;;;;;;3.00;3.00;;;;;;;;5030020;28;10489;-80
2023/05/11 03:07:36;;;;;;;;;2.25;2.25;;;;;;;;5030493;28;9779;-82
2023/05/11 03:10:07;;;;;;;;;2.75;2.75;;;;;;;;5030237;28;9758;-80
2023/05/11 03:12:34;;;;;;;;;2.50;2.50;;;;;;;;5038252;28;9796;-80
2023/05/11 03:15:03;;;;;;;;;3.00;3.00;;;;;;;;5032764;28;9614;-81
2023/05/11 03:17:30;;;;;;;;;2.00;2.00;;;;;;;;5030515;28;9860;-81
2023/05/11 03:20:02;;;;;;;;;3.00;3.00;;;;;;;;5029989;28;9641;-82
2023/05/11 03:22:30;;;;;;;;;4.50;3.00;;;;;;;;5030130;28;9620;-80
2023/05/11 03:24:59;;;;;;;;;5.00;3.25;;;;;;;;5030155;28;9911;-82
2023/05/11 03:27:28;;;;;;;;;3.00;3.00;;;;;;;;5030532;28;9787;-81
2023/05/11 03:29:56;;;;;;;;;3.75;3.75;;;;;;;;5029849;28;9799;-82
2023/05/11 03:32:23;;;;;;;;;3.50;3.50;;;;;;;;5029973;28;9965;-82
2023/05/11 03:34:50;;;;;;;;;4.25;3.75;;;;;;;;5029704;28;10001;-82
2023/05/11 03:37:20;;;;;;;;;5.75;4.00;;;;;;;;5030929;28;9795;-81
2023/05/11 03:39:48;;;;;;;;;5.00;5.00;;;;;;;;5029535;28;9982;-81
2023/05/11 03:42:16;;;;;;;;;4.00;4.00;;;;;;;;5030096;28;9905;-81
2023/05/11 03:44:47;;;;;;;;;2.00;2.00;;;;;;;;5030349;28;9761;-80
2023/05/11 03:47:15;;;;;;;;;6.50;4.25;;;;;;;;5030744;28;9887;-80
2023/05/11 03:49:43;;;;;;;;;3.00;3.00;;;;;;;;5029509;28;9889;-81
2023/05/11 03:52:11;;;;;;;;;3.50;3.50;;;;;;;;5029114;28;9763;-80
2023/05/11 03:54:38;;;;;;;;;5.25;4.25;;;;;;;;5029487;28;9800;-81
2023/05/11 03:57:05;;;;;;;;;2.50;2.50;;;;;;;;5028812;28;9748;-80
2023/05/11 03:59:32;;;;;;;;;3.25;3.25;;;;;;;;5029427;28;9743;-80
2023/05/11 04:02:02;;;;;;;;;3.25;2.50;;;;;;;;5028020;28;9620;-82
2023/05/11 04:04:30;;;;;;;;;3.00;3.00;;;;;;;;5029322;28;9690;-81
2023/05/11 04:06:57;;;;;;;;;3.00;3.00;;;;;;;;5030881;28;9552;-81
2023/05/11 04:09:26;;;;;;;;;4.50;4.00;;;;;;;;5035799;28;9582;-85
2023/05/11 04:11:53;;;;;;;;;3.25;3.00;;;;;;;;5031696;28;9610;-81
2023/05/11 04:14:20;;;;;;;;;4.00;4.00;;;;;;;;5021558;28;9637;-82
2023/05/11 04:16:47;;;;;;;;;4.67;4.00;;;;;;;;5029648;28;10345;-82
2023/05/11 04:19:16;;;;;;;;;4.00;4.00;;;;;;;;5030478;28;9891;-80
2023/05/11 04:21:43;;;;;;;;;6.00;4.33;;;;;;;;5029321;28;9487;-81
2023/05/11 04:24:10;;;;;;;;;4.50;4.50;;;;;;;;5029170;28;9527;-80
2023/05/11 04:26:37;;;;;;;;;4.00;4.00;;;;;;;;5028447;28;9489;-80
2023/05/11 04:29:05;;;;;;;;;6.00;5.00;;;;;;;;5028170;28;9281;-79
2023/05/11 04:31:32;;;;;;;;;5.00;4.00;;;;;;;;5027725;28;9490;-79
2023/05/11 04:33:59;;;;;;;;;5.00;3.33;;;;;;;;5027860;28;9383;-80
2023/05/11 04:36:28;;;;;;;;;5.67;4.00;;;;;;;;5028457;28;9364;-80
2023/05/11 04:38:56;;;;;;;;;5.67;5.67;;;;;;;;5028017;28;9391;-79
2023/05/11 04:41:23;;;;;;;;;8.50;7.50;;;;;;;;5027708;28;9324;-79
2023/05/11 04:43:53;;;;;;;;;5.75;5.75;;;;;;;;5027983;28;9482;-78
2023/05/11 04:46:21;;;;;;;;;6.00;4.75;;;;;;;;5027966;28;9563;-80
2023/05/11 04:48:48;;;;;;;;;6.33;5.00;;;;;;;;5028388;28;9470;-80
2023/05/11 04:51:19;;;;;;;;;7.00;6.00;;;;;;;;5028611;28;9567;-80
2023/05/11 04:53:47;;;;;;;;;7.33;5.67;;;;;;;;5028097;28;9412;-79
2023/05/11 04:56:15;;;;;;;;;6.25;6.25;;;;;;;;5028115;28;9405;-79
2023/05/11 04:58:42;;;;;;;;;9.00;6.50;;;;;;;;5027993;28;9419;-79
2023/05/11 05:01:10;;;;;;;;;9.00;6.00;;;;;;;;5027184;28;9606;-79
2023/05/11 05:03:38;;;;;;;;;6.50;5.00;;;;;;;;5027864;28;9632;-80
2023/05/11 05:06:08;;;;;;;;;8.00;7.00;;;;;;;;5027794;28;9590;-80
2023/05/11 05:08:36;;;;;;;;;5.00;4.00;;;;;;;;5027800;28;9781;-80
2023/05/11 05:11:05;;;;;;;;;8.00;6.25;;;;;;;;5027435;28;9712;-80
2023/05/11 05:13:32;;;;;;;;;7.00;7.00;;;;;;;;5032765;28;9465;-77
2023/05/11 05:15:59;;;;;;;;;5.00;5.00;;;;;;;;5027333;28;9466;-81
2023/05/11 05:18:27;;;;;;;;;10.25;7.75;;;;;;;;5027886;28;9668;-82
2023/05/11 05:20:54;;;;;;;;;6.50;6.50;;;;;;;;5027090;28;9634;-80
2023/05/11 05:23:22;;;;;;;;;7.00;7.00;;;;;;;;5027255;28;9491;-81
2023/05/11 05:25:49;;;;;;;;;7.25;7.25;;;;;;;;5026772;28;9577;-79
2023/05/11 05:28:18;;;;;;;;;5.25;4.75;;;;;;;;5027595;28;9510;-80
2023/05/11 05:30:45;;;;;;;;;7.00;7.00;;;;;;;;5027702;28;9498;-81
2023/05/11 05:33:13;;;;;;;;;7.75;6.25;;;;;;;;5028069;28;9573;-80
2023/05/11 05:35:41;;;;;;;;;7.00;7.00;;;;;;;;5027714;28;9415;-81
2023/05/11 05:38:08;;;;;;;;;9.00;6.75;;;;;;;;5027310;28;9528;-78
2023/05/11 05:40:38;;;;;;;;;8.00;8.00;;;;;;;;5027519;28;9497;-79
2023/05/11 05:43:05;;;;;;;;;7.50;7.50;;;;;;;;5027684;28;9482;-80
2023/05/11 05:45:34;;;;;;;;;8.33;7.00;;;;;;;;5029676;28;9547;-81
2023/05/11 05:48:01;;;;;;;;;12.00;9.67;;;;;;;;5031933;28;9434;-79
2023/05/11 05:50:28;;;;;;;;;7.50;6.00;;;;;;;;5031929;28;9358;-80
2023/05/11 05:52:55;;;;;;;;;5.00;5.00;;;;;;;;5032135;28;9456;-81
2023/05/11 05:55:22;;;;;;;;;5.00;5.00;;;;;;;;5032118;28;9409;-79
2023/05/11 05:57:50;;;;;;;;;11.75;7.25;;;;;;;;5032535;28;9490;-79
2023/05/11 06:00:18;;;;;;;;;7.25;7.25;;;;;;;;5032636;28;9550;-80
2023/05/11 06:02:46;;;;;;;;;9.00;6.00;;;;;;;;5033697;28;9752;-80
2023/05/11 06:05:13;;;;;;;;;8.00;6.00;;;;;;;;5032634;28;9528;-81
2023/05/11 06:07:41;;;;;;;;;7.25;7.25;;;;;;;;5031985;28;9587;-80
2023/05/11 06:10:08;;;;;;;;;8.00;7.25;;;;;;;;5030936;28;9510;-79
2023/05/11 06:12:35;;;;;;;;;6.25;6.00;;;;;;;;5031831;28;9548;-80
2023/05/11 06:15:03;;;;;;;;;6.33;6.33;;;;;;;;5030783;28;9434;-77
2023/05/11 06:17:30;;;;;;;;;7.00;6.00;;;;;;;;5031131;28;9475;-80
2023/05/11 06:19:58;;;;;;;;;9.00;8.00;;;;;;;;5034113;28;9426;-79
2023/05/11 06:22:25;;;;;;;;;8.67;7.00;;;;;;;;5030869;28;9477;-78
2023/05/11 06:24:53;;;;;;;;;3.00;3.00;;;;;;;;5030298;28;9320;-78
2023/05/11 06:27:20;;;;;;;;;7.00;6.33;;;;;;;;5031297;28;9420;-78
2023/05/11 06:29:47;;;;;;;;;7.33;6.00;;;;;;;;5030856;28;9207;-78
2023/05/11 06:32:15;;;;;;;;;7.00;7.00;;;;;;;;5030570;28;9256;-81
2023/05/11 06:34:42;;;;;;;;;9.67;7.00;;;;;;;;5030553;28;9281;-79
2023/05/11 06:37:10;;;;;;;;;6.67;6.67;;;;;;;;5031306;28;9193;-79
2023/05/11 06:39:38;;;;;;;;;6.67;6.67;;;;;;;;5030471;28;9128;-78
2023/05/11 06:42:13;;;;;;;;;8.00;8.00;;;;;;;;5030238;28;9181;-78
2023/05/11 06:44:41;;;;;;;;;9.33;7.33;;;;;;;;5030217;28;9179;-76
2023/05/11 06:47:08;;;;;;;;;7.33;5.67;;;;;;;;5030240;28;9104;-76
2023/05/11 06:49:36;;;;;;;;;7.33;7.33;;;;;;;;5032846;28;9781;-77
2023/05/11 06:52:03;;;;;;;;;7.33;6.00;;;;;;;;5029980;28;9118;-77
2023/05/11 06:54:31;;;;;;;;;5.00;5.00;;;;;;;;5030198;28;9053;-77
2023/05/11 06:56:59;;;;;;;;;7.25;7.25;;;;;;;;5028964;28;8875;-77
2023/05/11 06:59:26;;;;;;;;;9.25;7.00;;;;;;;;5030155;28;8849;-77
2023/05/11 07:01:53;;;;;;;;;9.50;7.75;;;;;;;;5029365;28;8915;-77
2023/05/11 07:04:20;;;;;;;;;6.75;6.75;;;;;;;;5029779;28;8864;-78
2023/05/11 07:06:47;;;;;;;;;6.67;5.00;;;;;;;;5030112;28;8862;-78
2023/05/11 07:09:15;;;;;;;;;6.25;6.25;;;;;;;;5030460;28;8962;-78
2023/05/11 07:11:44;;;;;;;;;8.50;8.25;;;;;;;;5030514;28;8861;-78
2023/05/11 07:14:11;;;;;;;;;6.67;6.67;;;;;;;;5030020;28;8846;-78
2023/05/11 07:16:38;;;;;;;;;6.75;6.75;;;;;;;;5030024;28;8951;-78
2023/05/11 07:19:07;;;;;;;;;7.75;7.75;;;;;;;;5029858;28;8857;-77
2023/05/11 07:21:34;;;;;;;;;8.50;8.50;;;;;;;;5029979;28;8871;-79
2023/05/11 07:24:02;;;;;;;;;8.25;8.25;;;;;;;;5029345;28;8837;-80
2023/05/11 07:26:30;;;;;;;;;7.00;6.00;;;;;;;;5029367;28;8883;-80
2023/05/11 07:28:58;;;;;;;;;8.00;8.00;;;;;;;;5029769;28;8950;-80
2023/05/11 07:31:26;;;;;;;;;6.50;6.50;;;;;;;;5029231;28;8813;-80
2023/05/11 07:33:53;;;;;;;;;10.00;8.25;;;;;;;;5029843;28;8868;-76
2023/05/11 07:36:20;;;;;;;;;7.00;7.00;;;;;;;;5029981;28;9627;-78
2023/05/11 07:38:48;;;;;;;;;7.00;6.75;;;;;;;;5030324;28;8879;-79
2023/05/11 07:41:16;;;;;;;;;5.50;5.50;;;;;;;;5029676;28;8848;-78
2023/05/11 07:43:43;;;;;;;;;5.75;5.50;;;;;;;;5030125;28;8863;-79
2023/05/11 07:46:12;;;;;;;;;4.25;3.75;;;;;;;;5030420;28;8867;-79
2023/05/11 07:48:39;;;;;;;;;7.50;6.75;;;;;;;;5031014;28;8882;-83
2023/05/11 07:51:07;;;;;;;;;6.00;6.00;;;;;;;;5030747;28;8856;-81
2023/05/11 07:53:35;;;;;;;;;8.50;6.50;;;;;;;;5030448;28;8826;-81
2023/05/11 07:56:02;;;;;;;;;7.25;7.00;;;;;;;;5029455;28;8980;-82
2023/05/11 07:58:29;;;;;;;;;6.00;4.50;;;;;;;;5029450;28;8885;-81
2023/05/11 08:00:57;;;;;;;;;6.00;6.00;;;;;;;;5020949;28;8812;-82
2023/05/11 08:03:25;;;;;;;;;8.25;5.00;;;;;;;;5028489;28;8856;-80
2023/05/11 08:05:53;;;;;;;;;7.00;4.50;;;;;;;;5029305;28;8840;-75
2023/05/11 08:08:20;;;;;;;;;5.00;5.00;;;;;;;;5029282;28;8975;-81
2023/05/11 08:10:47;;;;;;;;;4.75;4.75;;;;;;;;5028685;28;8856;-81
2023/05/11 08:13:14;;;;;;;;;5.50;5.50;;;;;;;;5038573;28;8839;-81
2023/05/11 08:15:41;;;;;;;;;3.50;3.50;;;;;;;;5028896;28;8872;-80
2023/05/11 08:18:09;;;;;;;;;6.25;4.75;;;;;;;;5028251;28;9020;-81
2023/05/11 08:20:40;;;;;;;;;3.00;3.00;;;;;;;;5029101;28;8990;-82
2023/05/11 08:23:09;;;;;;;;;3.00;3.00;;;;;;;;5028311;28;8848;-81
2023/05/11 08:25:36;;;;;;;;;5.75;5.25;;;;;;;;5028571;28;8856;-81
2023/05/11 08:28:03;;;;;;;;;6.00;4.25;;;;;;;;5027952;28;8864;-82
2023/05/11 08:30:30;;;;;;;;;3.00;3.00;;;;;;;;5028033;28;8854;-82
2023/05/11 08:32:57;;;;;;;;;5.25;3.00;;;;;;;;5028188;28;8860;-80
2023/05/11 08:35:24;;;;;;;;;3.00;3.00;;;;;;;;5028316;28;8836;-80
2023/05/11 08:37:53;;;;;;;;;2.00;2.00;;;;;;;;5028123;28;8856;-80
2023/05/11 08:40:20;;;;;;;;;2.00;2.00;;;;;;;;5028620;28;8916;-80
2023/05/11 08:42:50;;;;;;;;;1.00;1.00;;;;;;;;5027733;28;8856;-78
2023/05/11 08:45:17;;;;;;;;;2.75;2.75;;;;;;;;5027792;28;8844;-78
2023/05/11 08:47:46;;;;;;;;;4.00;2.00;;;;;;;;5028070;28;8898;-80
2023/05/11 08:50:13;;;;;;;;;3.00;2.75;;;;;;;;5028368;28;9254;-79
2023/05/11 08:52:41;;;;;;;;;3.00;3.00;;;;;;;;5028257;28;8887;-81
2023/05/11 08:55:10;;;;;;;;;2.75;2.00;;;;;;;;5027871;28;8929;-80
2023/05/11 08:57:38;;;;;;;;;2.25;2.25;;;;;;;;5020629;28;8852;-81
2023/05/11 09:00:06;;;;;;;;;4.00;3.00;;;;;;;;5028238;28;8845;-79
2023/05/11 09:02:33;;;;;;;;;3.75;3.25;;;;;;;;5008397;28;8830;-80
2023/05/11 09:05:02;;;;;;;;;4.00;4.00;;;;;;;;5007751;28;8844;-81
2023/05/11 09:07:30;;;;;;;;;3.50;3.50;;;;;;;;5008038;28;8972;-81
2023/05/11 09:10:00;;;;;;;;;3.50;3.50;;;;;;;;5007831;28;8845;-78
2023/05/11 09:12:28;;;;;;;;;3.00;3.00;;;;;;;;5013692;28;8835;-81
2023/05/11 09:14:56;;;;;;;;;5.75;3.50;;;;;;;;5007760;28;8882;-81
2023/05/11 09:17:25;;;;;;;;;3.00;2.00;;;;;;;;5008554;28;8847;-79
2023/05/11 09:20:00;;;;;;;;;2.00;2.00;;;;;;;;5007858;28;8882;-81
2023/05/11 09:22:27;;;;;;;;;2.50;2.25;;;;;;;;5008347;28;9011;-79
2023/05/11 09:24:54;;;;;;;;;3.25;3.25;;;;;;;;5007739;28;9660;-77
2023/05/11 09:27:25;;;;;;;;;4.25;2.75;;;;;;;;5009019;28;8908;-82
2023/05/11 09:29:54;;;;;;;;;3.50;3.50;;;;;;;;5008229;28;8854;-80
2023/05/11 09:32:21;;;;;;;;;3.00;1.50;;;;;;;;5027199;28;8812;-80
2023/05/11 09:34:49;;;;;;;;;3.75;3.75;;;;;;;;5028130;28;8878;-81
2023/05/11 09:37:18;;;;;;;;;5.00;3.25;;;;;;;;5028853;28;8868;-82
2023/05/11 09:39:45;;;;;;;;;4.50;3.00;;;;;;;;5028721;28;8864;-81
2023/05/11 09:42:13;;;;;;;;;2.00;2.00;;;;;;;;5029018;28;8882;-81
2023/05/11 09:44:41;;;;;;;;;2.00;2.00;;;;;;;;5027589;28;8906;-79
2023/05/11 09:47:14;;;;;;;;;2.00;2.00;;;;;;;;5027534;28;8873;-81
2023/05/11 09:49:42;;;;;;;;;2.25;2.25;;;;;;;;5027439;28;8913;-80
2023/05/11 09:52:11;;;;;;;;;2.75;2.25;;;;;;;;5027530;28;8862;-81
2023/05/11 09:54:43;;;;;;;;;2.75;2.75;;;;;;;;5027130;28;8855;-80
2023/05/11 09:57:23;;;;;;;;;3.00;3.00;;;;;;;;5027425;28;8864;-81
2023/05/11 09:59:51;;;;;;;;;4.00;4.00;;;;;;;;5018563;28;8877;-78
2023/05/11 10:02:22;;;;;;;;;5.50;2.75;;;;;;;;5026800;28;8809;-80
2023/05/11 10:04:49;;;;;;;;;2.75;2.75;;;;;;;;5027535;28;8846;-80
2023/05/11 10:07:27;;;;;;;;;3.00;1.00;;;;;;;;5027172;28;8849;-77
2023/05/11 10:09:56;;;;;;;;;1.00;1.00;;;;;;;;5029863;28;9642;-80
2023/05/11 10:12:26;;;;;;;;;2.00;2.00;;;;;;;;5032733;28;8972;-87
2023/05/11 10:14:57;;;;;;;;;0.00;0.00;;;;;;;;5029833;28;8837;-82
2023/05/11 10:17:25;;;;;;;;;2.50;1.25;;;;;;;;5028326;28;8856;-77
2023/05/11 10:19:55;;;;;;;;;4.00;2.50;;;;;;;;5027028;28;8982;-78
2023/05/11 10:22:24;;;;;;;;;3.00;3.00;;;;;;;;5028453;28;9001;-82
2023/05/11 10:24:51;;;;;;;;;2.25;2.25;;;;;;;;5027542;28;8966;-82
2023/05/11 10:27:19;;;;;;;;;1.00;1.00;;;;;;;;5027376;28;8876;-80
2023/05/11 10:29:47;;;;;;;;;1.50;1.50;;;;;;;;5027148;28;8856;-79
2023/05/11 10:32:16;;;;;;;;;4.00;1.00;;;;;;;;5028679;28;8820;-79
2023/05/11 10:34:45;;;;;;;;;3.00;1.00;;;;;;;;5030777;28;8967;-79
2023/05/11 10:37:13;;;;;;;;;1.00;1.00;;;;;;;;5031272;28;8977;-79
2023/05/11 10:39:41;;;;;;;;;0.25;0.25;;;;;;;;5032837;28;8864;-82
2023/05/11 10:42:35;;;;;;;;;2.00;2.00;;;;;;;;5032429;28;8978;-79
2023/05/11 10:45:14;;;;;;;;;2.00;2.00;;;;;;;;5018866;28;9690;-77
2023/05/11 10:48:04;;;;;;;;;2.60;1.00;;;;;;;;5030109;28;8851;-81
2023/05/11 10:50:48;;;;;;;;;1.00;1.00;;;;;;;;5030375;28;9685;-80
2023/05/11 10:53:36;;;;;;;;;4.00;2.00;;;;;;;;5030516;28;8875;-79
2023/05/11 10:56:27;;;;;;;;;2.80;1.20;;;;;;;;5029995;28;8884;-80
2023/05/11 10:59:19;;;;;;;;;2.00;2.00;;;;;;;;5024892;28;8968;-80
2023/05/11 11:01:47;;;;;;;;;2.40;2.40;;;;;;;;5027507;28;8809;-79
2023/05/11 11:04:14;;;;;;;;;1.40;1.40;;;;;;;;5030201;28;8970;-78
2023/05/11 11:06:44;;;;;;;;;5.40;3.00;;;;;;;;5029778;28;9010;-77
2023/05/11 11:09:13;;;;;;;;;2.40;2.40;;;;;;;;5030422;28;8848;-81
2023/05/11 11:11:44;;;;;;;;;2.40;2.40;;;;;;;;5030024;28;8864;-78
2023/05/11 11:14:13;;;;;;;;;1.40;1.40;;;;;;;;5041899;28;8852;-80
2023/05/11 11:16:41;;;;;;;;;3.00;3.00;;;;;;;;5030211;28;9603;-79
2023/05/11 11:19:36;;;;;;;;;2.00;2.00;;;;;;;;5030073;28;8852;-78
2023/05/11 11:22:05;;;;;;;;;1.80;1.80;;;;;;;;5029608;28;8845;-83
2023/05/11 11:24:46;;;;;;;;;2.00;2.00;;;;;;;;5030637;28;9038;-77
2023/05/11 11:27:14;;;;;;;;;3.00;2.40;;;;;;;;5030594;28;8872;-78
2023/05/11 11:29:41;;;;;;;;;4.00;2.00;;;;;;;;5029762;28;8883;-77
2023/05/11 11:32:27;;;;;;;;;8.80;4.00;;;;;;;;5025736;28;8804;-77
2023/05/11 11:34:55;;;;;;;;;2.00;2.00;;;;;;;;5006192;28;8862;-78
2023/05/11 11:37:23;;;;;;;;;1.80;1.80;;;;;;;;5009513;28;8878;-77
2023/05/11 11:40:02;;;;;;;;;3.40;3.00;;;;;;;;5012003;28;8886;-78
2023/05/11 11:42:38;;;;;;;;;3.00;3.00;;;;;;;;5017899;28;8918;-78
2023/05/11 11:45:28;;;;;;;;;3.00;3.00;;;;;;;;5012139;28;8843;-75
2023/05/11 11:48:11;;;;;;;;;2.00;2.00;;;;;;;;5002787;28;8996;-77
2023/05/11 11:50:40;;;;;;;;;3.00;3.00;;;;;;;;5004709;28;8872;-78
2023/05/11 11:53:12;;;;;;;;;4.00;2.20;;;;;;;;5009515;28;8893;-81
2023/05/11 11:55:47;;;;;;;;;3.20;3.00;;;;;;;;5014100;28;9018;-77
2023/05/11 11:58:45;;;;;;;;;3.20;2.00;;;;;;;;5013784;28;8836;-77
2023/05/11 12:01:14;;;;;;;;;3.60;3.00;;;;;;;;5026885;28;8800;-78
2023/05/11 12:03:41;;;;;;;;;3.40;1.80;;;;;;;;5028602;28;8874;-77
2023/05/11 12:06:09;;;;;;;;;2.40;2.00;;;;;;;;5027561;28;9707;-78
2023/05/11 12:08:40;;;;;;;;;2.60;2.60;;;;;;;;5028454;28;8878;-77
2023/05/11 12:11:07;;;;;;;;;4.00;2.00;;;;;;;;5028472;28;8868;-77
2023/05/11 12:13:36;;;;;;;;;2.20;2.20;;;;;;;;5036974;28;8866;-75
2023/05/11 12:16:09;;;;;;;;;2.40;2.40;;;;;;;;5027759;28;8860;-77
2023/05/11 12:18:36;;;;;;;;;2.80;2.00;;;;;;;;5028496;28;8850;-78
2023/05/11 12:21:03;;;;;;;;;3.40;3.40;;;;;;;;5027513;28;8857;-77
2023/05/11 12:23:31;;;;;;;;;2.40;2.40;;;;;;;;5028615;28;8849;-77
2023/05/11 12:26:03;;;;;;;;;1.40;1.40;;;;;;;;5027449;28;8868;-76
2023/05/11 12:28:30;;;;;;;;;4.00;2.20;;;;;;;;5031356;28;9659;-77
2023/05/11 12:30:58;;;;;;;;;2.80;2.20;;;;;;;;5032313;28;8930;-77
2023/05/11 12:33:25;;;;;;;;;1.00;1.00;;;;;;;;5027890;28;8856;-77
2023/05/11 12:35:53;;;;;;;;;2.60;2.60;;;;;;;;5027251;28;8882;-77
2023/05/11 12:38:21;;;;;;;;;3.00;3.00;;;;;;;;5027775;28;9583;-77
2023/05/11 12:40:49;;;;;;;;;2.00;2.00;;;;;;;;5027251;28;8949;-76
2023/05/11 12:43:22;;;;;;;;;3.60;2.60;;;;;;;;5028100;28;8851;-77
2023/05/11 12:45:50;;;;;;;;;3.00;3.00;;;;;;;;5027197;28;8844;-77
2023/05/11 12:48:17;;;;;;;;;3.00;3.00;;;;;;;;5027772;28;9335;-77
2023/05/11 12:50:45;;;;;;;;;2.00;2.00;;;;;;;;5027359;28;8884;-76
2023/05/11 12:53:14;;;;;;;;;2.80;2.80;;;;;;;;5027849;28;8840;-77
2023/05/11 12:55:41;;;;;;;;;2.20;2.20;;;;;;;;5038992;28;8856;-77
2023/05/11 12:58:10;;;;;;;;;3.00;3.00;;;;;;;;5027348;28;8856;-77
2023/05/11 13:00:51;;;;;;;;;3.40;3.00;;;;;;;;5022733;28;8842;-82
2023/05/11 13:03:22;;;;;;;;;3.20;3.20;;;;;;;;5015978;28;8860;-77
2023/05/11 13:05:49;;;;;;;;;2.40;2.40;;;;;;;;5007549;28;8893;-78
2023/05/11 13:08:19;;;;;;;;;2.20;2.20;;;;;;;;5007832;28;8855;-77
2023/05/11 13:10:47;;;;;;;;;2.00;2.00;;;;;;;;5008037;28;8897;-77
2023/05/11 13:13:27;;;;;;;;;3.00;3.00;;;;;;;;5008656;28;8908;-78
2023/05/11 13:15:56;;;;;;;;;3.20;3.20;;;;;;;;5009598;28;8914;-77
2023/05/11 13:18:23;;;;;;;;;3.40;3.40;;;;;;;;5008584;28;8930;-77
2023/05/11 13:21:05;;;;;;;;;5.80;3.00;;;;;;;;5007489;28;8985;-77
2023/05/11 13:23:32;;;;;;;;;4.00;2.00;;;;;;;;5007186;28;8885;-77
2023/05/11 13:25:59;;;;;;;;;3.40;2.60;;;;;;;;5006497;28;8865;-77
2023/05/11 13:28:27;;;;;;;;;2.40;1.80;;;;;;;;5007274;28;8878;-77
2023/05/11 13:31:00;;;;;;;;;2.00;2.00;;;;;;;;5013580;28;8802;-77
2023/05/11 13:33:28;;;;;;;;;2.40;2.00;;;;;;;;5027045;28;8910;-78
2023/05/11 13:35:55;;;;;;;;;1.40;1.40;;;;;;;;5026757;28;8906;-77
2023/05/11 13:38:22;;;;;;;;;3.00;3.00;;;;;;;;5026232;28;9014;-76
2023/05/11 13:40:50;;;;;;;;;2.00;2.00;;;;;;;;5026366;28;8856;-79
2023/05/11 13:43:17;;;;;;;;;2.20;2.00;;;;;;;;5026477;28;8949;-76
2023/05/11 13:45:45;;;;;;;;;2.40;2.40;;;;;;;;5026709;28;8860;-76
2023/05/11 13:48:13;;;;;;;;;1.40;1.40;;;;;;;;5026606;28;8930;-76
2023/05/11 13:50:40;;;;;;;;;1.00;1.00;;;;;;;;5026375;28;8971;-77
2023/05/11 13:53:08;;;;;;;;;4.20;2.60;;;;;;;;5026065;28;8883;-79
2023/05/11 13:55:37;;;;;;;;;1.80;1.40;;;;;;;;5026594;28;8879;-76
2023/05/11 13:58:04;;;;;;;;;0.00;0.00;;;;;;;;5026580;28;8874;-76
2023/05/11 14:00:33;;;;;;;;;1.40;1.40;;;;;;;;5026513;28;9612;-78
2023/05/11 14:03:00;;;;;;;;;0.00;0.00;;;;;;;;5029257;28;8947;-78
2023/05/11 14:05:29;;;;;;;;;1.00;1.00;;;;;;;;5027485;28;8871;-76
2023/05/11 14:07:56;;;;;;;;;1.00;1.00;;;;;;;;5030154;28;8845;-78
2023/05/11 14:10:23;;;;;;;;;1.00;1.00;;;;;;;;5030523;28;8878;-76
2023/05/11 14:12:51;;;;;;;;;1.00;1.00;;;;;;;;5030388;28;8956;-78
2023/05/11 14:15:18;;;;;;;;;0.00;0.00;;;;;;;;5030391;28;8914;-78
2023/05/11 14:17:45;;;;;;;;;0.00;0.00;;;;;;;;5029750;28;8913;-77
2023/05/11 14:20:13;;;;;;;;;0.80;0.60;;;;;;;;5030207;28;8860;-76
2023/05/11 14:22:42;;;;;;;;;1.00;1.00;;;;;;;;5029603;28;8872;-77
2023/05/11 14:25:09;;;;;;;;;1.00;1.00;;;;;;;;5029866;28;8855;-78
2023/05/11 14:27:37;;;;;;;;;1.00;1.00;;;;;;;;5030488;28;9614;-77
2023/05/11 14:30:05;;;;;;;;;0.60;0.60;;;;;;;;5029573;28;8860;-76
2023/05/11 14:32:32;;;;;;;;;0.00;0.00;;;;;;;;5029777;28;8876;-75
2023/05/11 14:34:59;;;;;;;;;0.00;0.00;;;;;;;;5030055;28;8979;-77
2023/05/11 14:37:26;;;;;;;;;0.20;0.20;;;;;;;;5029903;28;8947;-76
2023/05/11 14:39:56;;;;;;;;;2.00;0.20;;;;;;;;5029406;28;8854;-77
2023/05/11 14:42:24;;;;;;;;;0.60;0.60;;;;;;;;5029787;28;8874;-75
2023/05/11 14:44:53;;;;;;;;;0.00;0.00;;;;;;;;5030084;28;8846;-76
2023/05/11 14:47:20;;;;;;;;;1.00;1.00;;;;;;;;5029974;28;9612;-77
2023/05/11 14:49:47;;;;;;;;;0.00;0.00;;;;;;;;5030093;28;8988;-78
2023/05/11 14:52:15;;;;;;;;;1.80;0.20;;;;;;;;5030537;28;8866;-77
2023/05/11 14:54:42;;;;;;;;;0.60;0.60;;;;;;;;5030216;28;8876;-76
2023/05/11 14:57:11;;;;;;;;;0.00;0.00;;;;;;;;5030450;28;8872;-76
2023/05/11 14:59:38;;;;;;;;;0.40;0.40;;;;;;;;5030509;28;8987;-77
2023/05/11 15:02:05;;;;;;;;;2.00;0.00;;;;;;;;5030423;28;8892;-77
2023/05/11 15:04:34;;;;;;;;;1.80;1.80;;;;;;;;5035010;28;8864;-77
2023/05/11 15:07:01;;;;;;;;;0.00;0.00;;;;;;;;5029486;28;8878;-75
2023/05/11 15:09:31;;;;;;;;;0.00;0.00;;;;;;;;5029499;28;8866;-76